createdAt,value
2022-10-16T00:01:14.273Z,27.40
2022-10-16T00:04:20.400Z,21.70
2022-10-16T00:10:31.645Z,28.30
2022-10-16T00:16:43.825Z,27.80
2022-10-16T00:19:50.179Z,20.90
2022-10-16T00:22:56.350Z,23.40
2022-10-16T00:29:09.837Z,26.00
2022-10-16T00:32:15.936Z,23.50
2022-10-16T00:35:22.024Z,25.00
2022-10-16T00:38:28.235Z,23.30
2022-10-16T00:44:54.869Z,22.70
2022-10-16T00:48:01.197Z,24.90
2022-10-16T00:51:09.689Z,25.40
2022-10-16T00:54:18.606Z,24.50
2022-10-16T00:57:25.367Z,23.20
2022-10-16T01:00:31.514Z,23.60
2022-10-16T01:06:52.340Z,24.40
2022-10-16T01:10:10.089Z,23.20
2022-10-16T01:13:23.714Z,22.40
2022-10-16T01:16:37.046Z,22.20
2022-10-16T01:20:03.569Z,22.40
2022-10-16T01:23:30.084Z,23.20
2022-10-16T01:26:47.454Z,21.10
2022-10-16T01:29:58.746Z,22.20
2022-10-16T01:33:10.854Z,20.50
2022-10-16T01:36:21.945Z,21.30
2022-10-16T01:39:33.595Z,22.90
2022-10-16T01:42:44.182Z,22.60
2022-10-16T01:45:50.871Z,24.30
2022-10-16T01:48:57.926Z,24.80
2022-10-16T01:52:07.907Z,25.80
2022-10-16T01:55:18.668Z,21.10
2022-10-16T01:58:26.319Z,21.50
2022-10-16T02:01:37.586Z,22.10
2022-10-16T02:04:48.020Z,22.80
2022-10-16T02:07:54.405Z,23.20
2022-10-16T02:11:02.711Z,21.00
2022-10-16T02:14:10.219Z,20.30
2022-10-16T02:17:18.267Z,20.80
2022-10-16T02:20:27.947Z,19.70
2022-10-16T02:23:45.607Z,20.20
2022-10-16T02:26:55.041Z,20.40
2022-10-16T02:30:09.860Z,22.90
2022-10-16T02:33:17.895Z,23.30
2022-10-16T02:36:24.678Z,24.00
2022-10-16T02:39:32.271Z,24.60
2022-10-16T02:42:41.318Z,24.70
2022-10-16T02:45:47.670Z,20.60
2022-10-16T02:48:53.903Z,21.70
2022-10-16T02:51:59.909Z,21.30
2022-10-16T02:55:06.816Z,20.60
2022-10-16T02:58:13.556Z,20.70
2022-10-16T03:01:19.767Z,21.50
2022-10-16T03:04:25.995Z,21.50
2022-10-16T03:10:36.773Z,20.90
2022-10-16T03:13:42.955Z,20.90
2022-10-16T03:19:53.936Z,19.60
2022-10-16T03:23:00.081Z,20.90
2022-10-16T03:29:10.804Z,19.00
2022-10-16T03:32:16.948Z,19.10
2022-10-16T03:38:27.859Z,19.30
2022-10-16T03:41:33.970Z,21.30
2022-10-16T03:47:45.111Z,19.30
2022-10-16T03:50:52.726Z,19.10
2022-10-16T03:53:58.918Z,18.20
2022-10-16T04:00:11.564Z,18.20
2022-10-16T04:03:18.430Z,17.30
2022-10-16T04:06:24.652Z,19.20
2022-10-16T04:12:35.420Z,16.00
2022-10-16T04:18:46.207Z,15.10
2022-10-16T04:24:56.792Z,15.80
2022-10-16T04:31:09.310Z,13.90
2022-10-16T04:34:15.379Z,14.70
2022-10-16T04:37:21.809Z,16.70
2022-10-16T04:40:27.936Z,17.90
2022-10-16T04:46:38.810Z,14.30
2022-10-16T04:49:44.879Z,14.40
2022-10-16T04:52:51.044Z,14.70
2022-10-16T04:59:01.615Z,13.00
2022-10-16T05:05:12.808Z,15.30
2022-10-16T05:08:19.418Z,15.00
2022-10-16T05:11:25.556Z,14.80
2022-10-16T05:17:37.351Z,14.20
2022-10-16T05:20:46.264Z,18.00
2022-10-16T05:23:52.400Z,17.30
2022-10-16T05:30:03.093Z,14.00
2022-10-16T05:36:14.083Z,13.80
2022-10-16T05:39:20.762Z,12.70
2022-10-16T05:42:26.894Z,16.70
2022-10-16T05:48:37.654Z,17.40
2022-10-16T05:51:43.850Z,15.80
2022-10-16T05:54:49.913Z,15.50
2022-10-16T06:01:04.659Z,15.20
2022-10-16T06:07:22.809Z,17.10
2022-10-16T06:10:30.095Z,16.20
2022-10-16T06:13:36.259Z,13.60
2022-10-16T06:19:46.898Z,15.40
2022-10-16T06:26:06.139Z,15.40
2022-10-16T06:29:12.392Z,14.10
2022-10-16T06:32:18.520Z,14.90
2022-10-16T06:38:29.210Z,13.60
2022-10-16T06:44:39.805Z,14.60
2022-10-16T06:50:59.335Z,14.10
2022-10-16T06:54:05.740Z,14.90
2022-10-16T06:57:12.009Z,14.60
2022-10-16T07:00:18.702Z,13.60
2022-10-16T07:03:24.812Z,13.20
2022-10-16T07:09:35.541Z,14.30
2022-10-16T07:15:46.135Z,14.30
2022-10-16T07:22:01.873Z,15.30
2022-10-16T07:28:13.189Z,16.80
2022-10-16T07:34:24.594Z,16.10
2022-10-16T07:37:30.671Z,14.80
2022-10-16T07:43:42.205Z,14.50
2022-10-16T07:46:48.323Z,13.80
2022-10-16T07:52:58.915Z,15.70
2022-10-16T07:56:07.027Z,14.50
2022-10-16T07:59:13.188Z,14.50
2022-10-16T08:02:19.214Z,14.00
2022-10-16T08:08:30.514Z,13.70
2022-10-16T08:11:37.087Z,15.50
2022-10-16T08:14:45.676Z,15.00
2022-10-16T08:18:01.046Z,15.50
2022-10-16T08:21:08.448Z,21.60
2022-10-16T08:24:14.550Z,13.40
2022-10-16T08:27:20.643Z,14.00
2022-10-16T08:30:27.933Z,18.40
2022-10-16T08:33:35.939Z,13.40
2022-10-16T08:36:42.422Z,12.40
2022-10-16T08:39:48.571Z,12.70
2022-10-16T08:43:14.427Z,13.00
2022-10-16T08:46:49.715Z,12.90
2022-10-16T08:50:03.182Z,15.20
2022-10-16T08:53:16.415Z,12.30
2022-10-16T08:56:23.087Z,13.80
2022-10-16T08:59:30.591Z,13.30
2022-10-16T09:02:40.137Z,13.50
2022-10-16T09:06:00.216Z,12.90
2022-10-16T09:09:21.330Z,12.80
2022-10-16T09:12:34.680Z,12.60
2022-10-16T09:15:47.828Z,12.40
2022-10-16T09:19:00.812Z,12.40
2022-10-16T09:22:16.617Z,13.30
2022-10-16T09:25:25.276Z,13.20
2022-10-16T09:28:31.643Z,13.80
2022-10-16T09:31:40.319Z,11.60
2022-10-16T09:34:50.061Z,12.30
2022-10-16T09:37:58.299Z,13.10
2022-10-16T09:41:13.349Z,11.90
2022-10-16T09:44:27.354Z,13.00
2022-10-16T09:47:40.016Z,11.30
2022-10-16T09:50:46.289Z,12.00
2022-10-16T09:53:57.360Z,14.20
2022-10-16T09:57:15.099Z,11.60
2022-10-16T10:00:22.204Z,11.80
2022-10-16T10:03:48.794Z,11.80
2022-10-16T10:06:57.136Z,11.60
2022-10-16T10:10:05.350Z,11.40
2022-10-16T10:13:22.325Z,12.10
2022-10-16T10:16:29.402Z,11.90
2022-10-16T10:19:43.108Z,12.80
2022-10-16T10:22:49.836Z,11.80
2022-10-16T10:26:00.972Z,12.10
2022-10-16T10:29:15.416Z,13.60
2022-10-16T10:32:35.703Z,14.00
2022-10-16T10:35:47.638Z,11.70
2022-10-16T10:38:57.762Z,13.40
2022-10-16T10:42:18.471Z,13.90
2022-10-16T10:45:36.329Z,13.90
2022-10-16T10:49:08.843Z,13.90
2022-10-16T10:52:35.704Z,12.50
2022-10-16T10:55:47.983Z,12.00
2022-10-16T10:59:09.462Z,12.10
2022-10-16T11:02:25.729Z,12.50
2022-10-16T11:05:45.687Z,11.20
2022-10-16T11:08:58.965Z,11.70
2022-10-16T11:12:14.053Z,13.30
2022-10-16T11:15:23.555Z,11.30
2022-10-16T11:18:41.355Z,12.40
2022-10-16T11:21:57.019Z,11.40
2022-10-16T11:28:16.815Z,13.10
2022-10-16T11:31:32.996Z,11.90
2022-10-16T11:34:46.987Z,14.60
2022-10-16T11:37:55.791Z,11.80
2022-10-16T11:41:06.075Z,11.90
2022-10-16T11:44:36.034Z,12.80
2022-10-16T11:47:58.922Z,12.10
2022-10-16T11:51:13.900Z,12.30
2022-10-16T11:54:25.191Z,12.10
2022-10-16T11:57:34.603Z,12.00
2022-10-16T12:00:48.280Z,13.20
2022-10-16T12:04:06.628Z,12.10
2022-10-16T12:07:17.309Z,12.50
2022-10-16T12:10:27.757Z,12.50
2022-10-16T12:13:36.528Z,11.40
2022-10-16T12:16:53.091Z,15.30
2022-10-16T12:20:25.152Z,13.50
2022-10-16T12:23:31.494Z,10.70
2022-10-16T12:26:40.654Z,10.90
2022-10-16T12:29:48.361Z,10.70
2022-10-16T12:33:01.077Z,11.90
2022-10-16T12:36:12.592Z,11.10
2022-10-16T12:39:25.790Z,13.70
2022-10-16T12:42:38.256Z,11.00
2022-10-16T12:45:45.756Z,11.10
2022-10-16T12:49:08.476Z,13.40
2022-10-16T12:52:30.283Z,12.30
2022-10-16T12:55:51.396Z,13.30
2022-10-16T12:59:09.618Z,12.30
2022-10-16T13:02:52.647Z,11.60
2022-10-16T13:06:16.366Z,13.70
2022-10-16T13:09:39.722Z,11.60
2022-10-16T13:13:08.415Z,13.10
2022-10-16T13:16:23.822Z,12.80
2022-10-16T13:19:36.916Z,12.60
2022-10-16T13:22:55.306Z,10.60
2022-10-16T13:26:19.342Z,11.10
2022-10-16T13:29:31.959Z,11.80
2022-10-16T13:32:38.532Z,12.90
2022-10-16T13:35:52.601Z,11.50
2022-10-16T13:39:15.873Z,12.70
2022-10-16T13:42:28.327Z,11.50
2022-10-16T13:45:34.635Z,11.90
2022-10-16T13:48:41.016Z,13.60
2022-10-16T13:51:58.782Z,11.10
2022-10-16T13:55:05.180Z,11.50
2022-10-16T13:58:15.741Z,13.50
2022-10-16T14:01:29.993Z,11.40
2022-10-16T14:04:43.449Z,12.70
2022-10-16T14:07:53.939Z,12.90
2022-10-16T14:11:02.461Z,13.10
2022-10-16T14:14:13.014Z,11.70
2022-10-16T14:17:21.232Z,12.60
2022-10-16T14:20:32.091Z,14.00
2022-10-16T14:23:40.892Z,14.00
2022-10-16T14:26:51.105Z,12.90
2022-10-16T14:30:18.020Z,11.00
2022-10-16T14:33:34.401Z,14.10
2022-10-16T14:36:43.198Z,12.30
2022-10-16T14:39:53.324Z,16.30
2022-10-16T14:43:00.107Z,12.80
2022-10-16T14:46:12.047Z,15.50
2022-10-16T14:49:23.076Z,13.70
2022-10-16T14:52:29.454Z,13.80
2022-10-16T14:55:35.506Z,12.70
2022-10-16T14:58:41.635Z,14.20
2022-10-16T15:01:48.604Z,13.50
2022-10-16T15:04:55.072Z,16.20
2022-10-16T15:08:01.299Z,16.10
2022-10-16T15:11:10.527Z,13.80
2022-10-16T15:14:17.069Z,14.10
2022-10-16T15:17:23.099Z,15.60
2022-10-16T15:20:31.260Z,14.00
2022-10-16T15:23:37.425Z,17.20
2022-10-16T15:26:44.099Z,16.50
2022-10-16T15:29:50.240Z,15.70
2022-10-16T15:32:56.524Z,21.60
2022-10-16T15:36:02.620Z,18.30
2022-10-16T15:39:14.591Z,15.20
2022-10-16T15:42:20.757Z,18.60
2022-10-16T15:45:26.921Z,17.90
2022-10-16T15:48:34.234Z,17.10
2022-10-16T15:51:42.667Z,13.30
2022-10-16T15:54:53.379Z,15.20
2022-10-16T15:58:00.543Z,14.00
2022-10-16T16:01:07.770Z,15.90
2022-10-16T16:04:31.893Z,21.10
2022-10-16T16:07:41.107Z,13.80
2022-10-16T16:10:47.252Z,15.60
2022-10-16T16:13:53.224Z,22.50
2022-10-16T16:20:05.596Z,18.70
2022-10-16T16:23:11.812Z,19.30
2022-10-16T16:26:25.142Z,15.00
2022-10-16T16:29:31.188Z,14.20
2022-10-16T16:35:41.861Z,18.40
2022-10-16T16:38:48.365Z,14.90
2022-10-16T16:41:54.811Z,14.60
2022-10-16T16:45:01.429Z,15.90
2022-10-16T16:48:08.220Z,16.30
2022-10-16T16:51:17.314Z,17.80
2022-10-16T16:54:23.552Z,14.90
2022-10-16T16:57:30.254Z,15.30
2022-10-16T17:00:36.644Z,17.30
2022-10-16T17:03:46.515Z,17.40
2022-10-16T17:06:54.451Z,17.90
2022-10-16T17:10:00.541Z,13.90
2022-10-16T17:13:06.578Z,15.20
2022-10-16T17:19:19.469Z,15.70
2022-10-16T17:22:25.908Z,16.30
2022-10-16T17:25:34.113Z,16.00
2022-10-16T17:28:40.536Z,17.80
2022-10-16T17:31:49.902Z,21.20
2022-10-16T17:34:56.082Z,16.80
2022-10-16T17:38:02.123Z,17.40
2022-10-16T17:44:22.920Z,15.10
2022-10-16T17:47:29.068Z,17.80
2022-10-16T17:50:35.225Z,21.50
2022-10-16T17:53:42.514Z,20.10
2022-10-16T17:56:49.074Z,19.40
2022-10-16T17:59:57.299Z,17.70
2022-10-16T18:03:03.468Z,18.40
2022-10-16T18:06:09.980Z,17.70
2022-10-16T18:09:18.954Z,16.40
2022-10-16T18:12:25.238Z,16.60
2022-10-16T18:15:31.567Z,14.30
2022-10-16T18:18:37.790Z,16.10
2022-10-16T18:21:43.993Z,15.90
2022-10-16T18:24:50.143Z,15.80
2022-10-16T18:27:56.255Z,13.20
2022-10-16T18:37:14.311Z,18.40
2022-10-16T18:40:20.831Z,15.00
2022-10-16T18:43:27.348Z,15.20
2022-10-16T18:46:34.367Z,15.40
2022-10-16T18:49:40.788Z,13.70
2022-10-16T18:52:52.121Z,14.30
2022-10-16T18:55:58.243Z,15.60
2022-10-16T19:02:10.319Z,13.90
2022-10-16T19:05:16.454Z,15.70
2022-10-16T19:08:22.634Z,16.80
2022-10-16T19:11:29.817Z,16.10
2022-10-16T19:14:37.056Z,14.80
2022-10-16T19:17:43.140Z,14.00
2022-10-16T19:23:56.804Z,14.10
2022-10-16T19:27:02.804Z,15.20
2022-10-16T19:36:23.404Z,14.40
2022-10-16T19:39:29.615Z,13.90
2022-10-16T19:42:36.332Z,13.20
2022-10-16T19:45:42.407Z,15.30
2022-10-16T19:51:54.869Z,14.50
2022-10-16T19:55:01.050Z,16.90
2022-10-16T19:58:07.210Z,13.70
2022-10-16T20:01:14.303Z,13.60
2022-10-16T20:04:20.445Z,15.50
2022-10-16T20:10:31.646Z,15.50
2022-10-16T20:16:48.455Z,16.70
2022-10-16T20:22:59.052Z,19.60
2022-10-16T20:29:10.716Z,18.80
2022-10-16T20:32:17.128Z,20.70
2022-10-16T20:35:23.120Z,19.70
2022-10-16T20:38:29.243Z,22.20
2022-10-16T20:44:40.039Z,22.90
2022-10-16T20:47:46.284Z,19.50
2022-10-16T20:50:52.392Z,19.50
2022-10-16T20:57:03.902Z,22.10
2022-10-16T21:03:16.111Z,20.70
2022-10-16T21:09:26.707Z,20.40
2022-10-16T21:15:38.036Z,23.00
2022-10-16T21:18:45.088Z,21.10
2022-10-16T21:21:53.012Z,25.90
2022-10-16T21:24:59.279Z,22.80
2022-10-16T21:28:05.520Z,26.80
2022-10-16T21:31:20.025Z,25.90
2022-10-16T21:34:26.585Z,25.50
2022-10-16T21:37:33.262Z,28.10
2022-10-16T21:40:39.450Z,23.20
2022-10-16T21:46:51.783Z,24.30
2022-10-16T21:49:57.860Z,24.10
2022-10-16T21:56:13.839Z,26.20
2022-10-16T21:59:20.227Z,26.50
2022-10-16T22:02:26.323Z,26.50
2022-10-16T22:08:38.343Z,21.40
2022-10-16T22:11:46.290Z,22.00
2022-10-16T22:14:52.536Z,19.80
2022-10-16T22:17:58.887Z,20.40
2022-10-16T22:21:06.772Z,19.80
2022-10-16T22:24:13.283Z,20.50
2022-10-16T22:27:19.501Z,22.60
2022-10-16T22:33:30.358Z,23.60
2022-10-16T22:36:36.991Z,18.10
2022-10-16T22:39:43.168Z,22.50
2022-10-16T22:45:54.531Z,21.00
2022-10-16T22:49:01.057Z,22.10
2022-10-16T22:52:07.529Z,19.80
2022-10-16T22:55:14.102Z,20.70
2022-10-16T22:58:20.484Z,21.30
2022-10-16T23:01:28.957Z,20.80
2022-10-16T23:04:36.078Z,21.70
2022-10-16T23:07:42.145Z,19.80
2022-10-16T23:10:49.765Z,21.10
2022-10-16T23:13:56.686Z,20.80
2022-10-16T23:17:02.780Z,20.70
2022-10-16T23:20:10.184Z,18.90
2022-10-16T23:23:16.311Z,20.20
2022-10-16T23:32:32.832Z,20.70
2022-10-16T23:35:42.352Z,20.90
2022-10-16T23:38:48.719Z,23.80
2022-10-16T23:41:54.822Z,19.40
2022-10-16T23:45:01.123Z,20.50
2022-10-16T23:48:07.358Z,18.70
2022-10-16T23:54:18.211Z,18.30
